createdAt,value
2022-11-12T00:01:06.125Z,7.52
2022-11-12T00:03:32.550Z,7.53
2022-11-12T00:05:59.087Z,7.51
2022-11-12T00:08:25.783Z,7.52
2022-11-12T00:10:52.541Z,7.49
2022-11-12T00:13:19.076Z,7.48
2022-11-12T00:15:47.056Z,7.50
2022-11-12T00:18:13.611Z,7.48
2022-11-12T00:20:46.404Z,7.47
2022-11-12T00:23:12.829Z,7.48
2022-11-12T00:25:39.483Z,7.50
2022-11-12T00:28:08.290Z,7.53
2022-11-12T00:30:38.564Z,7.50
2022-11-12T00:33:05.448Z,7.49
2022-11-12T00:35:33.217Z,7.53
2022-11-12T00:38:02.902Z,7.48
2022-11-12T00:40:29.807Z,7.42
2022-11-12T00:42:56.247Z,7.41
2022-11-12T00:45:27.729Z,7.43
2022-11-12T00:47:58.116Z,7.41
2022-11-12T00:50:24.899Z,7.40
2022-11-12T00:52:54.356Z,7.43
2022-11-12T00:55:21.131Z,7.45
2022-11-12T00:57:47.658Z,7.44
2022-11-12T01:00:17.090Z,7.45
2022-11-12T01:02:46.376Z,7.45
2022-11-12T01:05:16.105Z,7.44
2022-11-12T01:07:45.196Z,7.45
2022-11-12T01:10:14.119Z,7.43
2022-11-12T01:12:40.669Z,7.41
2022-11-12T01:15:09.946Z,7.43
2022-11-12T01:17:39.094Z,7.44
2022-11-12T01:20:06.054Z,7.44
2022-11-12T01:22:32.821Z,7.45
2022-11-12T01:24:59.221Z,7.47
2022-11-12T01:27:25.573Z,7.49
2022-11-12T01:29:52.044Z,7.50
2022-11-12T01:32:21.558Z,7.52
2022-11-12T01:34:48.026Z,7.53
2022-11-12T01:37:14.497Z,7.51
2022-11-12T01:39:41.436Z,7.52
2022-11-12T01:42:07.891Z,7.51
2022-11-12T01:44:42.557Z,7.52
2022-11-12T01:47:16.889Z,7.52
2022-11-12T01:49:55.304Z,7.54
2022-11-12T01:52:39.600Z,7.52
2022-11-12T01:55:09.985Z,7.55
2022-11-12T01:57:49.843Z,7.53
2022-11-12T02:00:17.696Z,7.42
2022-11-12T02:02:49.680Z,7.43
2022-11-12T02:05:18.790Z,7.37
2022-11-12T02:07:46.766Z,7.31
2022-11-12T02:10:14.583Z,7.24
2022-11-12T02:13:00.616Z,7.19
2022-11-12T02:15:27.490Z,7.18
2022-11-12T02:17:56.731Z,7.16
2022-11-12T02:20:23.303Z,7.16
2022-11-12T02:22:52.076Z,7.18
2022-11-12T02:25:27.181Z,7.17
2022-11-12T02:27:56.056Z,7.12
2022-11-12T02:30:31.975Z,7.15
2022-11-12T02:32:58.769Z,7.14
2022-11-12T02:35:25.153Z,7.13
2022-11-12T02:37:51.613Z,7.17
2022-11-12T02:40:18.066Z,7.09
2022-11-12T02:42:44.589Z,7.15
2022-11-12T02:45:11.384Z,7.21
2022-11-12T02:47:40.175Z,7.14
2022-11-12T02:50:07.346Z,7.16
2022-11-12T02:52:36.078Z,7.17
2022-11-12T02:55:02.973Z,7.15
2022-11-12T02:57:30.326Z,7.17
2022-11-12T02:59:56.855Z,7.15
2022-11-12T03:02:23.235Z,7.16
2022-11-12T03:04:49.875Z,7.14
2022-11-12T03:07:16.385Z,7.25
2022-11-12T03:09:42.904Z,7.23
2022-11-12T03:12:09.376Z,7.14
2022-11-12T03:14:38.077Z,7.16
2022-11-12T03:17:06.999Z,7.16
2022-11-12T03:19:33.405Z,7.16
2022-11-12T03:21:59.907Z,7.17
2022-11-12T03:24:26.316Z,7.12
2022-11-12T03:26:55.218Z,7.07
2022-11-12T03:29:21.887Z,7.12
2022-11-12T03:31:48.263Z,7.13
2022-11-12T03:34:14.811Z,7.09
2022-11-12T03:36:41.250Z,7.06
2022-11-12T03:39:07.782Z,7.08
2022-11-12T03:41:34.207Z,7.10
2022-11-12T03:44:00.711Z,7.08
2022-11-12T03:46:27.128Z,7.07
2022-11-12T03:48:53.529Z,7.03
2022-11-12T03:51:23.002Z,7.05
2022-11-12T03:53:54.244Z,7.06
2022-11-12T03:56:20.600Z,7.00
2022-11-12T03:58:49.341Z,7.06
2022-11-12T04:01:15.741Z,7.03
2022-11-12T04:03:42.210Z,7.07
2022-11-12T04:06:27.456Z,7.03
2022-11-12T04:08:53.875Z,7.05
2022-11-12T04:11:22.985Z,7.07
2022-11-12T04:13:49.351Z,7.04
2022-11-12T04:16:40.659Z,7.04
2022-11-12T04:19:29.027Z,7.08
2022-11-12T04:21:58.156Z,7.14
2022-11-12T04:24:44.639Z,7.06
2022-11-12T04:27:16.329Z,7.11
2022-11-12T04:30:03.141Z,7.08
2022-11-12T04:32:30.965Z,7.08
2022-11-12T04:34:58.368Z,6.99
2022-11-12T04:37:27.370Z,7.01
2022-11-12T04:39:54.058Z,6.94
2022-11-12T04:42:39.214Z,6.99
2022-11-12T04:45:11.146Z,6.87
2022-11-12T04:47:41.649Z,6.86
2022-11-12T04:50:17.698Z,6.84
2022-11-12T04:52:44.346Z,6.90
2022-11-12T04:55:11.180Z,6.91
2022-11-12T04:57:38.268Z,6.88
2022-11-12T05:00:05.814Z,6.86
2022-11-12T05:02:32.172Z,6.85
2022-11-12T05:04:58.537Z,6.73
2022-11-12T05:07:24.936Z,6.78
2022-11-12T05:09:51.436Z,6.77
2022-11-12T05:12:17.937Z,6.82
2022-11-12T05:14:44.304Z,6.75
2022-11-12T05:17:13.072Z,6.74
2022-11-12T05:19:41.814Z,6.74
2022-11-12T05:22:17.581Z,6.64
2022-11-12T05:24:53.773Z,6.64
2022-11-12T05:27:21.136Z,6.69
2022-11-12T05:29:47.563Z,6.65
2022-11-12T05:32:15.885Z,6.56
2022-11-12T05:34:42.730Z,6.57
2022-11-12T05:37:11.516Z,6.59
2022-11-12T05:39:38.259Z,6.48
2022-11-12T05:42:13.041Z,6.52
2022-11-12T05:44:40.628Z,6.58
2022-11-12T05:47:07.062Z,6.58
2022-11-12T05:49:33.441Z,6.53
2022-11-12T05:51:59.867Z,6.52
2022-11-12T05:54:26.485Z,6.50
2022-11-12T05:56:55.944Z,6.50
2022-11-12T05:59:25.417Z,6.54
2022-11-12T06:01:51.959Z,6.52
2022-11-12T06:04:18.502Z,6.51
2022-11-12T06:06:45.117Z,6.40
2022-11-12T06:09:11.679Z,6.47
2022-11-12T06:11:41.272Z,6.47
2022-11-12T06:14:10.022Z,6.41
2022-11-12T06:16:36.506Z,6.29
2022-11-12T06:19:03.114Z,6.38
2022-11-12T06:21:29.534Z,6.34
2022-11-12T06:23:58.690Z,6.37
2022-11-12T06:26:27.096Z,6.37
2022-11-12T06:28:53.862Z,6.38
2022-11-12T06:31:20.778Z,6.40
2022-11-12T06:33:47.825Z,6.35
2022-11-12T06:36:18.663Z,6.38
2022-11-12T06:38:48.017Z,6.38
2022-11-12T06:41:14.821Z,6.36
2022-11-12T06:43:41.659Z,6.44
2022-11-12T06:46:14.052Z,6.40
2022-11-12T06:48:40.703Z,6.36
2022-11-12T06:51:18.869Z,6.40
2022-11-12T06:53:45.668Z,6.35
2022-11-12T06:56:15.377Z,6.32
2022-11-12T06:58:42.473Z,6.38
2022-11-12T07:01:12.951Z,6.47
2022-11-12T07:03:41.753Z,6.44
2022-11-12T07:06:14.604Z,6.45
2022-11-12T07:08:41.778Z,6.45
2022-11-12T07:11:13.283Z,6.45
2022-11-12T07:13:39.803Z,6.43
2022-11-12T07:16:08.233Z,6.40
2022-11-12T07:18:35.317Z,6.41
2022-11-12T07:21:04.989Z,6.41
2022-11-12T07:23:33.271Z,6.39
2022-11-12T07:26:01.988Z,6.41
2022-11-12T07:28:29.686Z,6.43
2022-11-12T07:31:05.822Z,6.44
2022-11-12T07:33:33.220Z,6.44
2022-11-12T07:36:03.453Z,6.40
2022-11-12T07:38:31.402Z,6.41
2022-11-12T07:41:06.225Z,6.46
2022-11-12T07:43:34.239Z,6.42
2022-11-12T07:46:10.241Z,6.46
2022-11-12T07:48:40.456Z,6.48
2022-11-12T07:51:12.754Z,6.46
2022-11-12T07:53:39.684Z,6.47
2022-11-12T07:56:06.790Z,6.45
2022-11-12T07:58:34.312Z,6.43
2022-11-12T08:01:26.587Z,6.36
2022-11-12T08:03:53.134Z,6.44
2022-11-12T08:06:19.562Z,6.51
2022-11-12T08:08:45.998Z,6.31
2022-11-12T08:11:12.443Z,6.24
2022-11-12T08:13:38.887Z,6.36
2022-11-12T08:16:07.576Z,6.34
2022-11-12T08:18:34.154Z,6.51
2022-11-12T08:21:02.698Z,6.49
2022-11-12T08:23:29.873Z,6.56
2022-11-12T08:26:00.713Z,6.49
2022-11-12T08:28:37.086Z,6.53
2022-11-12T08:31:09.045Z,6.41
2022-11-12T08:33:35.885Z,6.47
2022-11-12T08:36:04.082Z,6.57
2022-11-12T08:38:30.568Z,6.44
2022-11-12T08:41:01.374Z,6.44
2022-11-12T08:43:27.907Z,6.58
2022-11-12T08:45:54.336Z,6.45
2022-11-12T08:48:21.118Z,6.53
2022-11-12T08:50:49.698Z,6.57
2022-11-12T08:53:16.358Z,6.59
2022-11-12T08:55:45.330Z,6.59
2022-11-12T08:58:11.766Z,6.48
2022-11-12T09:00:41.421Z,6.48
2022-11-12T09:03:12.985Z,6.60
2022-11-12T09:05:39.364Z,6.42
2022-11-12T09:08:11.952Z,6.59
2022-11-12T09:10:39.451Z,6.57
2022-11-12T09:13:06.272Z,6.70
2022-11-12T09:15:37.952Z,6.66
2022-11-12T09:18:06.460Z,6.77
2022-11-12T09:20:33.288Z,6.64
2022-11-12T09:23:09.645Z,6.73
2022-11-12T09:25:36.929Z,6.86
2022-11-12T09:28:17.060Z,6.75
2022-11-12T09:30:48.561Z,6.78
2022-11-12T09:33:17.218Z,6.71
2022-11-12T09:35:45.467Z,6.63
2022-11-12T09:38:12.423Z,6.58
2022-11-12T09:40:51.094Z,6.68
2022-11-12T09:43:31.646Z,6.64
2022-11-12T09:46:27.788Z,6.61
2022-11-12T09:49:12.513Z,6.59
2022-11-12T09:52:01.192Z,6.69
2022-11-12T09:54:31.359Z,6.76
2022-11-12T09:56:57.777Z,6.68
2022-11-12T09:59:29.952Z,6.64
2022-11-12T10:02:14.682Z,6.66
2022-11-12T10:04:55.129Z,6.78
2022-11-12T10:07:43.312Z,6.86
2022-11-12T10:10:24.356Z,6.87
2022-11-12T10:13:06.046Z,6.95
2022-11-12T10:15:57.261Z,6.83
2022-11-12T10:18:43.315Z,6.95
2022-11-12T10:21:38.140Z,6.94
2022-11-12T10:24:09.853Z,6.90
2022-11-12T10:26:38.034Z,6.92
2022-11-12T10:29:28.292Z,6.94
2022-11-12T10:31:54.706Z,6.97
2022-11-12T10:34:23.579Z,7.01
2022-11-12T10:37:24.654Z,7.12
2022-11-12T10:39:51.471Z,7.01
2022-11-12T10:42:20.723Z,6.97
2022-11-12T10:44:52.628Z,7.06
2022-11-12T10:47:22.511Z,7.14
2022-11-12T10:50:11.060Z,7.05
2022-11-12T10:52:37.502Z,7.10
2022-11-12T10:55:16.129Z,7.08
2022-11-12T10:57:42.662Z,7.05
2022-11-12T11:00:19.856Z,7.10
2022-11-12T11:02:53.083Z,7.24
2022-11-12T11:05:38.543Z,7.24
2022-11-12T11:08:05.754Z,7.43
2022-11-12T11:10:35.352Z,7.46
2022-11-12T11:13:27.026Z,7.21
2022-11-12T11:15:58.862Z,7.52
2022-11-12T11:18:25.861Z,7.50
2022-11-12T11:21:03.310Z,7.45
2022-11-12T11:23:55.966Z,7.61
2022-11-12T11:26:36.479Z,7.70
2022-11-12T11:29:35.868Z,7.54
2022-11-12T11:32:19.121Z,7.54
2022-11-12T11:34:54.732Z,7.39
2022-11-12T11:37:30.200Z,7.50
2022-11-12T11:40:21.401Z,7.56
2022-11-12T11:43:09.914Z,7.62
2022-11-12T11:45:52.118Z,7.40
2022-11-12T11:48:49.904Z,7.38
2022-11-12T11:52:10.108Z,7.50
2022-11-12T11:55:05.329Z,7.62
2022-11-12T11:57:50.739Z,7.63
2022-11-12T12:00:20.901Z,7.55
2022-11-12T12:03:11.723Z,7.74
2022-11-12T12:05:59.903Z,7.68
2022-11-12T12:08:56.543Z,7.65
2022-11-12T12:11:42.203Z,7.70
2022-11-12T12:14:19.786Z,7.46
2022-11-12T12:16:57.820Z,7.47
2022-11-12T12:19:52.049Z,7.51
2022-11-12T12:22:33.805Z,7.74
2022-11-12T12:25:09.690Z,7.75
2022-11-12T12:27:44.076Z,7.76
2022-11-12T12:30:31.910Z,7.81
2022-11-12T12:33:40.962Z,7.72
2022-11-12T12:36:11.379Z,7.51
2022-11-12T12:38:51.504Z,7.62
2022-11-12T12:41:37.995Z,7.49
2022-11-12T12:44:06.979Z,7.62
2022-11-12T12:46:44.135Z,7.59
2022-11-12T12:49:17.292Z,7.54
2022-11-12T12:51:43.896Z,7.60
2022-11-12T12:54:36.043Z,7.68
2022-11-12T12:57:28.883Z,7.67
2022-11-12T13:00:27.144Z,7.71
2022-11-12T13:02:53.648Z,7.72
2022-11-12T13:05:37.504Z,7.68
2022-11-12T13:08:09.275Z,7.66
2022-11-12T13:10:41.729Z,7.62
2022-11-12T13:13:17.216Z,7.66
2022-11-12T13:15:47.953Z,7.66
2022-11-12T13:18:39.599Z,7.67
2022-11-12T13:21:08.967Z,7.60
2022-11-12T13:24:08.519Z,7.60
2022-11-12T13:26:45.798Z,7.59
2022-11-12T13:29:23.484Z,7.52
2022-11-12T13:32:10.383Z,7.59
2022-11-12T13:34:36.889Z,7.65
2022-11-12T13:37:18.291Z,7.57
2022-11-12T13:39:47.310Z,7.60
2022-11-12T13:42:39.214Z,7.61
2022-11-12T13:45:08.442Z,7.67
2022-11-12T13:47:37.168Z,7.54
2022-11-12T13:50:08.711Z,7.58
2022-11-12T13:52:35.966Z,7.60
2022-11-12T13:55:12.357Z,7.69
2022-11-12T13:57:38.753Z,7.64
2022-11-12T14:00:17.117Z,7.51
2022-11-12T14:02:52.650Z,7.54
2022-11-12T14:05:28.030Z,7.52
2022-11-12T14:08:13.057Z,7.50
2022-11-12T14:11:06.323Z,7.43
2022-11-12T14:13:43.514Z,7.43
2022-11-12T14:16:18.880Z,7.50
2022-11-12T14:19:07.296Z,7.49
2022-11-12T14:21:34.374Z,7.48
2022-11-12T14:24:02.932Z,7.46
2022-11-12T14:26:35.203Z,7.44
2022-11-12T14:29:01.666Z,7.42
2022-11-12T14:31:28.098Z,7.43
2022-11-12T14:33:54.614Z,7.43
2022-11-12T14:36:27.634Z,7.38
2022-11-12T14:38:57.590Z,7.37
2022-11-12T14:41:38.794Z,7.40
2022-11-12T14:44:13.726Z,7.37
2022-11-12T14:46:50.184Z,7.32
2022-11-12T14:49:36.538Z,7.34
2022-11-12T14:52:22.561Z,7.24
2022-11-12T14:54:56.591Z,7.29
2022-11-12T14:57:28.551Z,7.27
2022-11-12T14:59:55.922Z,7.22
2022-11-12T15:02:53.414Z,7.24
2022-11-12T15:05:23.667Z,7.25
2022-11-12T15:07:58.187Z,7.23
2022-11-12T15:10:36.137Z,7.25
2022-11-12T15:13:08.893Z,7.21
2022-11-12T15:15:40.446Z,7.24
2022-11-12T15:18:16.476Z,7.22
2022-11-12T15:20:43.076Z,7.19
2022-11-12T15:23:19.407Z,7.18
2022-11-12T15:25:46.039Z,7.20
2022-11-12T15:28:23.823Z,7.20
2022-11-12T15:31:05.255Z,7.17
2022-11-12T15:33:34.155Z,7.12
2022-11-12T15:36:01.638Z,7.08
2022-11-12T15:38:36.335Z,7.12
2022-11-12T15:41:05.935Z,7.11
2022-11-12T15:43:35.596Z,7.09
2022-11-12T15:46:02.770Z,7.00
2022-11-12T15:48:29.148Z,7.00
2022-11-12T15:50:55.701Z,7.00
2022-11-12T15:53:22.180Z,7.01
2022-11-12T15:55:51.862Z,7.01
2022-11-12T15:58:32.023Z,7.04
2022-11-12T16:00:58.802Z,7.03
2022-11-12T16:03:25.804Z,6.98
2022-11-12T16:05:52.545Z,6.95
2022-11-12T16:08:19.284Z,6.90
2022-11-12T16:10:47.008Z,6.88
2022-11-12T16:13:26.571Z,6.88
2022-11-12T16:15:53.782Z,6.85
2022-11-12T16:18:20.424Z,6.82
2022-11-12T16:20:48.571Z,6.84
2022-11-12T16:23:15.056Z,6.81
2022-11-12T16:25:43.370Z,6.78
2022-11-12T16:28:14.002Z,6.79
2022-11-12T16:30:40.784Z,6.75
2022-11-12T16:33:13.417Z,6.68
2022-11-12T16:35:40.438Z,6.61
2022-11-12T16:38:15.317Z,6.62
2022-11-12T16:40:42.830Z,6.57
2022-11-12T16:43:09.301Z,6.55
2022-11-12T16:45:39.422Z,6.48
2022-11-12T16:48:20.537Z,6.53
2022-11-12T16:50:47.627Z,6.59
2022-11-12T16:53:14.155Z,6.56
2022-11-12T16:55:41.012Z,6.58
2022-11-12T16:58:07.535Z,6.59
2022-11-12T17:00:35.638Z,6.61
2022-11-12T17:03:02.083Z,6.56
2022-11-12T17:05:28.446Z,6.55
2022-11-12T17:07:59.443Z,6.51
2022-11-12T17:10:25.996Z,6.57
2022-11-12T17:12:55.424Z,6.55
2022-11-12T17:15:21.796Z,6.56
2022-11-12T17:17:48.216Z,6.46
2022-11-12T17:20:17.140Z,6.52
2022-11-12T17:22:43.553Z,6.54
2022-11-12T17:25:10.119Z,6.53
2022-11-12T17:27:36.646Z,6.51
2022-11-12T17:30:04.258Z,6.48
2022-11-12T17:32:30.871Z,6.45
2022-11-12T17:34:57.265Z,6.48
2022-11-12T17:37:23.726Z,6.43
2022-11-12T17:39:50.286Z,6.46
2022-11-12T17:42:16.640Z,6.42
2022-11-12T17:44:43.052Z,6.46
2022-11-12T17:47:09.667Z,6.46
2022-11-12T17:49:36.154Z,6.47
2022-11-12T17:52:02.564Z,6.46
2022-11-12T17:54:29.002Z,6.45
2022-11-12T17:56:55.477Z,6.42
2022-11-12T17:59:22.021Z,6.39
2022-11-12T18:01:48.524Z,6.33
2022-11-12T18:04:17.494Z,6.37
2022-11-12T18:06:44.009Z,6.25
2022-11-12T18:09:17.033Z,6.32
2022-11-12T18:11:49.123Z,6.24
2022-11-12T18:14:15.793Z,6.33
2022-11-12T18:16:42.399Z,6.30
2022-11-12T18:19:12.499Z,6.29
2022-11-12T18:21:40.337Z,6.36
2022-11-12T18:24:11.912Z,6.37
2022-11-12T18:26:39.039Z,6.32
2022-11-12T18:29:07.333Z,6.31
2022-11-12T18:31:33.821Z,6.29
2022-11-12T18:34:02.707Z,6.28
2022-11-12T18:36:29.209Z,6.31
2022-11-12T18:38:56.048Z,6.23
2022-11-12T18:41:26.976Z,6.31
2022-11-12T18:43:54.426Z,6.26
2022-11-12T18:46:21.193Z,6.26
2022-11-12T18:48:47.720Z,6.25
2022-11-12T18:51:16.556Z,6.21
2022-11-12T18:53:46.081Z,6.25
2022-11-12T18:56:18.566Z,6.15
2022-11-12T18:58:45.100Z,6.19
2022-11-12T19:01:21.049Z,6.10
2022-11-12T19:03:48.525Z,6.12
2022-11-12T19:06:16.569Z,6.11
2022-11-12T19:08:43.046Z,6.11
2022-11-12T19:11:18.634Z,6.12
2022-11-12T19:13:53.023Z,6.12
2022-11-12T19:16:22.556Z,6.17
2022-11-12T19:18:50.548Z,6.20
2022-11-12T19:21:23.115Z,6.20
2022-11-12T19:23:54.090Z,6.21
2022-11-12T19:26:22.407Z,6.25
2022-11-12T19:28:49.362Z,6.21
2022-11-12T19:31:23.740Z,6.23
2022-11-12T19:33:50.747Z,6.28
2022-11-12T19:36:20.714Z,6.24
2022-11-12T19:38:47.215Z,6.32
2022-11-12T19:41:19.687Z,6.37
2022-11-12T19:43:47.021Z,6.42
2022-11-12T19:46:14.773Z,6.44
2022-11-12T19:48:41.587Z,6.41
2022-11-12T19:51:11.912Z,6.42
2022-11-12T19:53:44.365Z,6.45
2022-11-12T19:56:16.845Z,6.47
2022-11-12T19:58:47.233Z,6.46
2022-11-12T20:01:18.367Z,6.47
2022-11-12T20:03:45.498Z,6.52
2022-11-12T20:06:17.768Z,6.49
2022-11-12T20:08:44.241Z,6.50
2022-11-12T20:11:11.624Z,6.53
2022-11-12T20:13:38.128Z,6.49
2022-11-12T20:16:19.614Z,6.49
2022-11-12T20:18:55.712Z,6.51
2022-11-12T20:21:23.802Z,6.55
2022-11-12T20:23:50.286Z,6.56
2022-11-12T20:26:17.216Z,6.56
2022-11-12T20:28:44.521Z,6.57
2022-11-12T20:31:20.531Z,6.53
2022-11-12T20:33:50.230Z,6.54
2022-11-12T20:36:20.261Z,6.59
2022-11-12T20:38:47.687Z,6.56
2022-11-12T20:41:24.991Z,6.58
2022-11-12T20:44:00.290Z,6.61
2022-11-12T20:46:27.205Z,6.57
2022-11-12T20:48:54.782Z,6.54
2022-11-12T20:51:26.318Z,6.55
2022-11-12T20:54:00.233Z,6.58
2022-11-12T20:56:29.182Z,6.57
2022-11-12T20:58:56.446Z,6.61
2022-11-12T21:01:24.789Z,6.57
2022-11-12T21:03:52.146Z,6.57
2022-11-12T21:06:21.783Z,6.58
2022-11-12T21:08:48.703Z,6.63
2022-11-12T21:11:17.880Z,6.59
2022-11-12T21:13:44.502Z,6.63
2022-11-12T21:16:12.654Z,6.60
2022-11-12T21:18:39.637Z,6.60
2022-11-12T21:21:14.607Z,6.63
2022-11-12T21:23:43.632Z,6.63
2022-11-12T21:26:13.430Z,6.65
2022-11-12T21:28:44.889Z,6.68
2022-11-12T21:31:17.365Z,6.69
2022-11-12T21:33:44.265Z,6.67
2022-11-12T21:36:16.040Z,6.69
2022-11-12T21:38:42.969Z,6.72
2022-11-12T21:41:13.499Z,6.75
2022-11-12T21:43:43.818Z,6.73
2022-11-12T21:46:26.913Z,6.72
2022-11-12T21:48:55.532Z,6.73
2022-11-12T21:51:26.975Z,6.75
2022-11-12T21:54:02.037Z,6.75
2022-11-12T21:56:29.033Z,6.76
2022-11-12T21:59:00.538Z,6.75
2022-11-12T22:01:32.623Z,6.79
2022-11-12T22:04:02.360Z,6.82
2022-11-12T22:06:29.749Z,6.83
2022-11-12T22:08:57.477Z,6.82
2022-11-12T22:11:25.349Z,6.82
2022-11-12T22:13:51.930Z,6.82
2022-11-12T22:16:29.291Z,6.84
2022-11-12T22:18:57.730Z,6.85
2022-11-12T22:21:38.333Z,6.82
2022-11-12T22:24:06.869Z,6.81
2022-11-12T22:26:33.434Z,6.79
2022-11-12T22:28:59.881Z,6.77
2022-11-12T22:31:28.582Z,6.79
2022-11-12T22:33:59.052Z,6.79
2022-11-12T22:36:28.799Z,6.80
2022-11-12T22:38:56.094Z,6.82
2022-11-12T22:41:25.309Z,6.81
2022-11-12T22:43:53.911Z,6.84
2022-11-12T22:46:28.494Z,6.81
2022-11-12T22:48:57.679Z,6.82
2022-11-12T22:51:32.178Z,6.82
2022-11-12T22:54:00.926Z,6.84
2022-11-12T22:56:28.199Z,6.82
2022-11-12T22:58:55.497Z,6.84
2022-11-12T23:01:25.801Z,6.82
2022-11-12T23:03:56.119Z,6.88
2022-11-12T23:06:25.736Z,6.89
2022-11-12T23:08:56.535Z,6.84
2022-11-12T23:11:25.907Z,6.83
2022-11-12T23:13:56.193Z,6.84
2022-11-12T23:16:29.123Z,6.84
2022-11-12T23:18:56.063Z,6.87
2022-11-12T23:21:25.760Z,6.85
2022-11-12T23:23:52.885Z,6.78
2022-11-12T23:26:24.945Z,6.77
2022-11-12T23:28:51.834Z,6.78
2022-11-12T23:31:19.641Z,6.79
2022-11-12T23:33:51.102Z,6.80
2022-11-12T23:36:18.398Z,6.84
2022-11-12T23:38:45.023Z,6.76
2022-11-12T23:41:17.601Z,6.82
2022-11-12T23:43:44.902Z,6.81
2022-11-12T23:46:12.694Z,6.78
2022-11-12T23:48:39.616Z,6.78
2022-11-12T23:51:11.866Z,6.76
2022-11-12T23:53:39.170Z,6.76
2022-11-12T23:56:07.553Z,6.72
2022-11-12T23:58:34.081Z,6.73
